MHSC

Details ICAO MHSC
Name CORONEL ENRIQUE SOTO CANO AB
Region Honduras
Timezone America/Tegucigalpa (UTC-6.0)
Plans Departing 6
Arriving 2
Stats Elevation 2,061 ft / 628 m (AMSL)
Location 14.382368° -87.621160°
Runways 1
Magnetic Variation 0.481° W
Sunrise 2017-12-12 12:07:07 UTC / 2017-12-12 06:07:07 Local
Sunset 2017-12-12 23:24:23 UTC / 2017-12-12 17:24:23 Local
Advertisement - Login to hide

Runways

ID Width Length Bearing (true) Bearing (mag) Surface Threshold Offset Overrun Length
17 148 ft / 45 m 8,049 ft / 2,453 m 169.71° 170.19° Asphalt 0 ft / 0 m 585 ft / 178 m
35 148 ft / 45 m 8,049 ft / 2,453 m 349.71° 350.19° Asphalt 0 ft / 0 m 1,000 ft / 305 m

Map

Weather


0- 5 10 15 20 25 30 35+ Temperature / ° C

Clouds and Precipitation
Forecast for 2017-12-13 06:00 UTC. Updated an hour ago

Ground ~20,000 ft ~40,000 ft Winds

METAR

MHSC 130158Z AUTO 36015G19KT 9999 OVC048 17/15 A3019 RMK AO2 SLP202 T01650150 $

TAF

TAF MHSC 122110Z 1221/1403 35012G18KT 9999 VCSH BKN030 QNH3010INS BECMG 1303/1304 35009KT 9999 NSW SCT020 BKN040 QNH3014INS BECMG 1317/1318 35010G15KT 9999 SCT030 QNH3008INS BECMG 1323/1324 VRB06KT 9999 SCT030 QNH3012INS TX24/1221Z TN14/1308Z

Frequencies

Ground 121.90 MHz GND
Approach 125.80 MHz APP
Tower 118.90 MHz TWR
Warning: Do not use this data for real-world aviation or navigation. No guarantee of current accuracy is given.